aviador You're here:

CYHK Decoded Metar

GJOA HAVEN in NU, CANADA
Report Time2018-07-21 07:00:00
UTC Time2018-07-21 08:10:17
Flight Rules Old
Wind300° at 08 kt
W.Decomp.*RWY 31: 8.0 kt HW 0.3 kt LCW
W.Rank300° ranks 7
Current wind is below 300° avg. (11.2)
Visibility9999 m
Phenomena:N/A
Clouds:Overcast 034 Hf
Expected CloudBase > 1,200 ft AGL from Temp-Dew spread
Ceiling3,400 ft
Temp06°C (ISA -9)
Dew Point03°C (81% RH)
AAT1.6°C
QNH1019 hPa
Density Alt-997 ft
Elevation151 ft
Report Wrong Elevation
Raw Report
CYHK 210700Z AUTO 30008KT 9SM OVC034 06/03 A3010 RMK SLP199=

Extra information for CYHK:More info

Metar Taf Metar & Taf Last 4 Metars F.Rules Stats Wind Profile Meteogram Temp Stats Airport Information Weather charts Add Link Nearby VenuesMetar ALERT Operation Metar Decoded Social comments